Time;durP1;ratioP1;P1;durP2;ratioP2;P2;SDS_P1;SDS_P2;PMS_P1;PMS_P2;Temp;Humidity;BMP_temperature;BMP_pressure;BME280_temperature;BME280_humidity;BME280_pressure;Samples;Min_cycle;Max_cycle;Signal;HPM_P1;HPM_P2
2022/05/28 04:04:08;;;;;;;1.45;1.10;;;11.10;99.90;;;;;;5607868;23;20361;-63
2022/05/28 04:06:36;;;;;;;1.63;1.23;;;11.10;99.90;;;;;;4992464;28;20295;-64
2022/05/28 04:09:04;;;;;;;1.27;1.20;;;11.10;99.90;;;;;;4996849;28;20179;-63
2022/05/28 04:11:29;;;;;;;1.48;1.38;;;11.10;99.90;;;;;;4994807;28;20175;-63
2022/05/28 04:13:55;;;;;;;1.70;1.57;;;11.10;99.90;;;;;;4996220;28;20690;-63
2022/05/28 04:16:22;;;;;;;1.00;0.90;;;11.20;99.90;;;;;;4997140;28;20174;-64
2022/05/28 04:18:47;;;;;;;3.90;1.40;;;11.20;99.90;;;;;;4983493;28;20181;-64
2022/05/28 04:21:13;;;;;;;1.57;1.47;;;11.30;99.90;;;;;;4977099;28;20168;-64
2022/05/28 04:23:39;;;;;;;1.35;1.25;;;11.40;99.90;;;;;;4976469;28;20207;-64
2022/05/28 04:26:05;;;;;;;1.13;1.10;;;11.50;99.90;;;;;;4985264;28;20176;-64
2022/05/28 04:28:31;;;;;;;1.03;1.03;;;11.60;99.90;;;;;;4959047;28;20195;-64
2022/05/28 04:30:57;;;;;;;1.33;0.82;;;11.80;99.90;;;;;;4971800;28;20192;-64
2022/05/28 04:33:23;;;;;;;0.80;0.80;;;11.90;99.90;;;;;;4975455;28;20204;-64
2022/05/28 04:35:48;;;;;;;1.53;1.43;;;12.00;99.90;;;;;;4976870;28;20184;-63
2022/05/28 04:38:14;;;;;;;2.93;1.57;;;12.20;99.90;;;;;;4976935;28;20645;-62
2022/05/28 04:40:39;;;;;;;1.27;0.80;;;12.20;99.90;;;;;;4983383;28;20198;-64
2022/05/28 04:43:05;;;;;;;1.00;1.00;;;12.30;99.90;;;;;;4995644;28;20175;-63
2022/05/28 04:45:31;;;;;;;1.20;1.10;;;12.40;99.90;;;;;;4976412;28;20570;-65
2022/05/28 04:47:57;;;;;;;1.10;1.00;;;12.60;99.90;;;;;;4976642;28;20202;-63
2022/05/28 04:50:23;;;;;;;1.90;1.43;;;12.80;99.90;;;;;;4976504;28;20623;-64
2022/05/28 04:52:48;;;;;;;2.63;1.20;;;13.00;99.90;;;;;;4976066;28;20174;-63
2022/05/28 04:55:14;;;;;;;1.47;1.03;;;13.30;99.90;;;;;;4976568;28;20488;-64
2022/05/28 04:57:40;;;;;;;1.00;0.90;;;13.70;99.90;;;;;;4989209;28;20624;-64
2022/05/28 05:00:12;;;;;;;3.03;1.50;;;13.90;99.90;;;;;;4985368;28;20187;-64
2022/05/28 05:02:37;;;;;;;1.57;1.27;;;14.00;99.60;;;;;;4995745;28;20182;-64
2022/05/28 05:05:03;;;;;;;1.17;1.07;;;14.00;99.30;;;;;;4995559;28;20449;-64
2022/05/28 05:07:29;;;;;;;0.90;0.90;;;13.90;99.20;;;;;;4995859;28;20206;-65
2022/05/28 05:09:54;;;;;;;0.87;0.87;;;13.80;99.20;;;;;;4959702;28;20432;-64
2022/05/28 05:12:20;;;;;;;1.40;0.87;;;13.80;99.50;;;;;;4989035;28;20177;-64
2022/05/28 05:14:46;;;;;;;1.70;1.30;;;13.70;98.60;;;;;;4995662;28;20570;-64
2022/05/28 05:17:11;;;;;;;1.00;0.93;;;13.70;98.60;;;;;;4985101;28;20505;-65
2022/05/28 05:19:37;;;;;;;2.10;1.10;;;13.60;98.60;;;;;;4976043;28;20172;-64
2022/05/28 05:22:03;;;;;;;5.70;1.57;;;13.70;98.30;;;;;;4973067;28;20222;-64
2022/05/28 05:24:28;;;;;;;0.83;0.83;;;13.80;98.20;;;;;;4956430;28;20250;-64
2022/05/28 05:26:54;;;;;;;3.57;1.00;;;13.80;97.90;;;;;;4970026;28;20211;-64
2022/05/28 05:29:19;;;;;;;2.77;0.97;;;13.90;98.30;;;;;;4956694;28;20188;-64
2022/05/28 05:31:45;;;;;;;2.23;2.03;;;13.90;98.20;;;;;;4956469;28;20651;-64
2022/05/28 05:34:11;;;;;;;2.00;1.40;;;14.00;98.60;;;;;;4956055;28;20239;-64
2022/05/28 05:36:37;;;;;;;1.20;1.07;;;14.10;98.30;;;;;;4962947;28;20226;-64
2022/05/28 05:39:03;;;;;;;5.07;1.03;;;14.10;98.10;;;;;;4975485;28;20190;-64
2022/05/28 05:41:29;;;;;;;3.33;1.50;;;14.20;97.80;;;;;;4988300;28;20421;-64
2022/05/28 05:43:54;;;;;;;5.10;1.97;;;14.20;97.80;;;;;;4994746;28;20434;-64
2022/05/28 05:46:20;;;;;;;2.43;1.53;;;14.40;98.80;;;;;;4994927;28;20229;-64
2022/05/28 05:48:46;;;;;;;3.20;1.20;;;14.50;97.70;;;;;;4994996;28;20262;-64
2022/05/28 05:51:15;;;;;;;0.90;0.90;;;14.50;97.70;;;;;;4982771;28;20478;-64
2022/05/28 05:53:41;;;;;;;2.07;0.93;;;14.70;97.10;;;;;;4974556;28;20207;-64
2022/05/28 05:56:07;;;;;;;5.20;1.50;;;14.80;96.90;;;;;;4987607;28;20920;-64
2022/05/28 05:58:34;;;;;;;21.33;2.77;;;14.80;96.00;;;;;;4994858;28;20411;-64
2022/05/28 06:01:01;;;;;;;1.77;1.27;;;14.80;95.20;;;;;;4994851;28;20762;-65
2022/05/28 06:03:27;;;;;;;1.37;1.10;;;14.80;95.80;;;;;;4994223;28;20522;-65
2022/05/28 06:06:01;;;;;;;2.03;1.30;;;14.90;96.70;;;;;;4976759;28;20493;-66
2022/05/28 06:08:27;;;;;;;2.93;1.80;;;15.00;96.40;;;;;;4975461;28;20455;-64
2022/05/28 06:10:52;;;;;;;1.80;1.40;;;15.10;96.00;;;;;;4986155;28;20573;-63
2022/05/28 06:13:18;;;;;;;1.87;0.97;;;15.10;96.00;;;;;;4994196;28;20517;-64
2022/05/28 06:15:45;;;;;;;3.40;1.87;;;15.10;95.90;;;;;;4986985;28;20183;-64
2022/05/28 06:18:15;;;;;;;3.27;1.50;;;15.20;95.40;;;;;;4975047;28;20639;-63
2022/05/28 06:20:41;;;;;;;2.83;1.60;;;15.20;96.30;;;;;;4975170;28;20411;-64
2022/05/28 06:23:07;;;;;;;2.60;1.30;;;15.10;94.80;;;;;;4974610;28;20431;-63
2022/05/28 06:25:32;;;;;;;3.53;1.10;;;15.10;94.30;;;;;;4986429;28;20574;-64
2022/05/28 06:27:58;;;;;;;2.33;1.10;;;15.00;94.40;;;;;;4994218;28;20206;-64
2022/05/28 06:30:25;;;;;;;1.33;1.17;;;15.00;94.70;;;;;;4981276;28;20199;-65
2022/05/28 06:32:51;;;;;;;2.17;1.37;;;15.00;95.00;;;;;;4974301;28;20412;-64
2022/05/28 06:35:16;;;;;;;2.10;1.10;;;15.00;95.00;;;;;;4973578;28;20423;-65
2022/05/28 06:37:42;;;;;;;1.20;1.13;;;15.10;94.50;;;;;;4975197;28;20183;-64
2022/05/28 06:40:08;;;;;;;2.40;1.73;;;15.20;94.90;;;;;;4983676;28;20184;-65
2022/05/28 06:42:34;;;;;;;1.43;1.00;;;15.30;93.70;;;;;;4987417;28;20231;-64
2022/05/28 06:45:00;;;;;;;3.57;0.70;;;15.40;93.60;;;;;;4973799;28;20458;-63
2022/05/28 06:47:27;;;;;;;1.43;0.70;;;15.40;92.70;;;;;;4973705;28;20211;-64
2022/05/28 06:52:36;;;;;;;1.83;1.63;;;15.50;92.80;;;;;;4973416;28;20786;-65
2022/05/28 06:55:03;;;;;;;3.97;1.03;;;15.50;92.50;;;;;;4986331;28;20514;-64
2022/05/28 06:57:29;;;;;;;2.67;1.40;;;15.60;92.10;;;;;;4994208;28;20241;-65
2022/05/28 06:59:57;;;;;;;1.07;0.90;;;15.70;92.10;;;;;;4957917;28;20466;-66
2022/05/28 07:02:23;;;;;;;2.60;1.00;;;15.70;91.70;;;;;;4954851;28;20482;-65
2022/05/28 07:04:48;;;;;;;2.50;1.00;;;15.50;91.70;;;;;;4966438;28;20967;-64
2022/05/28 07:07:14;;;;;;;1.13;1.00;;;15.50;92.80;;;;;;4974591;28;20203;-65
2022/05/28 07:09:40;;;;;;;4.47;1.70;;;15.60;93.20;;;;;;4985359;28;20179;-64
2022/05/28 07:12:06;;;;;;;5.50;3.47;;;15.70;92.60;;;;;;4989073;28;20426;-65
2022/05/28 07:14:32;;;;;;;1.73;0.97;;;15.70;92.70;;;;;;4974150;28;20201;-64
2022/05/28 07:16:57;;;;;;;1.17;0.97;;;15.60;90.90;;;;;;4975730;28;20555;-64
2022/05/28 07:19:23;;;;;;;2.93;1.07;;;15.70;92.60;;;;;;4987466;28;20184;-64
2022/05/28 07:21:48;;;;;;;1.20;0.70;;;15.80;92.30;;;;;;4974321;28;20692;-65
2022/05/28 07:24:14;;;;;;;3.53;1.00;;;16.00;91.10;;;;;;4973839;28;20205;-65
2022/05/28 07:26:40;;;;;;;1.50;1.40;;;16.20;90.40;;;;;;4973487;28;20333;-64
2022/05/28 07:29:08;;;;;;;8.20;6.40;;;16.80;91.60;;;;;;4973973;28;20176;-64
2022/05/28 07:31:34;;;;;;;13.93;9.80;;;17.70;91.70;;;;;;4975570;28;20452;-63
2022/05/28 07:34:00;;;;;;;23.83;16.20;;;18.90;90.50;;;;;;4992992;28;20926;-65
2022/05/28 07:36:26;;;;;;;1.50;1.30;;;20.10;89.40;;;;;;4992115;28;20502;-65
2022/05/28 07:38:53;;;;;;;3.00;1.90;;;21.60;83.00;;;;;;4973828;28;20181;-66
2022/05/28 07:41:24;;;;;;;2.20;1.50;;;22.60;75.90;;;;;;4973958;28;20272;-64
2022/05/28 07:43:51;;;;;;;1.10;0.90;;;23.30;71.40;;;;;;4973603;28;20434;-66
2022/05/28 07:46:20;;;;;;;4.63;2.97;;;23.90;68.70;;;;;;4974877;28;20420;-64
2022/05/28 07:48:46;;;;;;;5.40;4.07;;;24.80;71.60;;;;;;4993087;28;20390;-65
2022/05/28 07:51:12;;;;;;;1.93;1.20;;;25.90;67.60;;;;;;4979046;28;20464;-65
2022/05/28 07:53:38;;;;;;;1.83;1.40;;;27.00;62.70;;;;;;4972412;28;20428;-65
2022/05/28 07:56:05;;;;;;;1.37;1.27;;;27.70;60.30;;;;;;4973816;28;20412;-65
2022/05/28 07:58:33;;;;;;;0.93;0.90;;;27.80;58.50;;;;;;4972939;28;20409;-66
2022/05/28 08:00:59;;;;;;;0.90;0.90;;;27.90;57.40;;;;;;4974025;28;20411;-64
2022/05/28 08:03:25;;;;;;;2.83;0.90;;;28.30;56.30;;;;;;4976215;28;20425;-67
2022/05/28 08:05:53;;;;;;;1.73;0.60;;;28.50;55.90;;;;;;4977375;28;20192;-64
2022/05/28 08:08:20;;;;;;;2.07;1.00;;;28.40;53.00;;;;;;4977382;28;20855;-63
2022/05/28 08:10:46;;;;;;;2.10;1.30;;;28.50;54.60;;;;;;4977008;28;20416;-66
2022/05/28 08:13:15;;;;;;;1.20;1.10;;;28.90;52.60;;;;;;4976674;28;20402;-64
2022/05/28 08:15:43;;;;;;;0.77;0.77;;;28.80;51.40;;;;;;4975370;28;20410;-66
2022/05/28 08:18:10;;;;;;;2.00;1.10;;;28.50;52.10;;;;;;4996076;28;20947;-63
2022/05/28 08:23:20;;;;;;;2.40;0.83;;;27.90;53.20;;;;;;4996305;28;20436;-65
2022/05/28 08:25:47;;;;;;;1.00;1.00;;;27.70;52.50;;;;;;4979525;28;20959;-66
2022/05/28 08:28:15;;;;;;;14.63;1.20;;;27.20;54.20;;;;;;4976842;28;20279;-64
2022/05/28 08:30:41;;;;;;;0.97;0.80;;;27.00;53.60;;;;;;4977066;28;20791;-65
2022/05/28 08:33:09;;;;;;;1.57;0.70;;;27.00;53.30;;;;;;4995948;28;20436;-65
2022/05/28 08:35:36;;;;;;;0.83;0.83;;;26.60;52.90;;;;;;4996368;28;20781;-66
2022/05/28 08:38:06;;;;;;;1.03;0.93;;;26.30;54.50;;;;;;4993096;28;20385;-64
2022/05/28 08:41:01;;;;;;;1.03;0.93;;;26.50;55.30;;;;;;4975386;28;20379;-66
2022/05/28 08:43:31;;;;;;;0.60;0.60;;;27.10;54.90;;;;;;4976496;28;20922;-65
2022/05/28 08:45:57;;;;;;;1.23;0.70;;;26.60;54.00;;;;;;4970771;28;20454;-66
2022/05/28 08:48:45;;;;;;;2.40;1.67;;;26.90;54.70;;;;;;4996013;28;20832;-64
2022/05/28 08:51:23;;;;;;;1.03;0.73;;;27.30;55.20;;;;;;4995523;28;20381;-65
2022/05/28 08:54:18;;;;;;;0.90;0.90;;;27.50;53.00;;;;;;4995349;28;20726;-66
2022/05/28 08:56:45;;;;;;;1.67;1.30;;;26.60;54.60;;;;;;4984072;28;20434;-64
2022/05/28 08:59:18;;;;;;;1.37;0.90;;;25.40;55.20;;;;;;4976170;28;20441;-64
2022/05/28 09:01:44;;;;;;;1.50;1.03;;;25.40;56.60;;;;;;4990170;28;20512;-65
2022/05/28 09:04:18;;;;;;;1.57;1.00;;;25.90;55.50;;;;;;4971254;28;20414;-65
2022/05/28 09:06:49;;;;;;;1.20;0.70;;;26.20;54.30;;;;;;4995000;28;20514;-66
2022/05/28 09:09:16;;;;;;;0.90;0.90;;;26.60;54.30;;;;;;4995670;28;20481;-66
2022/05/28 09:12:00;;;;;;;1.70;0.90;;;27.00;53.20;;;;;;4977679;28;20447;-65
2022/05/28 09:14:32;;;;;;;3.20;0.97;;;26.90;53.10;;;;;;4990953;28;20435;-64
2022/05/28 09:17:16;;;;;;;1.60;1.13;;;26.20;53.10;;;;;;4995182;28;20419;-65
2022/05/28 09:19:44;;;;;;;3.90;1.30;;;25.30;53.70;;;;;;4994949;28;20414;-64
2022/05/28 09:22:10;;;;;;;1.17;0.93;;;24.40;54.50;;;;;;4975710;28;20450;-65
2022/05/28 09:24:37;;;;;;;1.63;0.60;;;23.30;55.90;;;;;;4974362;28;20975;-64
2022/05/28 09:27:39;;;;;;;1.57;0.80;;;22.80;57.90;;;;;;4974955;28;20451;-66
2022/05/28 09:30:40;;;;;;;1.30;0.80;;;23.30;59.40;;;;;;4975446;28;20381;-65
2022/05/28 09:33:15;;;;;;;0.70;0.70;;;24.40;59.60;;;;;;4972026;28;20412;-65
2022/05/28 09:35:52;;;;;;;0.87;0.87;;;25.10;57.20;;;;;;4982343;28;20926;-67
2022/05/28 09:38:32;;;;;;;0.70;0.70;;;25.60;56.50;;;;;;4960313;28;20407;-65
2022/05/28 09:41:10;;;;;;;0.93;0.70;;;26.30;54.30;;;;;;4956695;28;20391;-63
2022/05/28 09:43:49;;;;;;;1.87;1.10;;;26.30;55.40;;;;;;4967809;28;20443;-66
2022/05/28 09:46:31;;;;;;;0.73;0.70;;;25.70;55.40;;;;;;4961710;28;20941;-63
2022/05/28 09:49:20;;;;;;;3.00;0.90;;;25.10;56.20;;;;;;4975288;28;20843;-65
2022/05/28 09:51:57;;;;;;;2.43;0.93;;;24.30;56.30;;;;;;4975463;28;20387;-66
2022/05/28 09:54:33;;;;;;;1.00;0.67;;;23.50;58.30;;;;;;4975137;28;20402;-64
2022/05/28 09:57:17;;;;;;;0.80;0.80;;;23.70;58.50;;;;;;4975267;28;20428;-66
2022/05/28 09:59:43;;;;;;;2.73;1.10;;;24.30;58.60;;;;;;4975002;28;20788;-65
2022/05/28 10:02:19;;;;;;;1.30;0.73;;;24.90;58.10;;;;;;4974916;28;20409;-66
2022/05/28 10:04:49;;;;;;;1.03;0.80;;;25.60;55.50;;;;;;4979824;28;20587;-64
2022/05/28 10:07:25;;;;;;;3.30;0.93;;;26.40;54.90;;;;;;4994688;28;20809;-66
2022/05/28 10:09:53;;;;;;;1.17;0.80;;;27.10;54.10;;;;;;4993196;28;20468;-66
2022/05/28 10:12:30;;;;;;;0.80;0.70;;;26.90;52.70;;;;;;4955911;28;20434;-65
2022/05/28 10:15:02;;;;;;;1.20;0.90;;;26.20;54.10;;;;;;4958185;28;20451;-64
2022/05/28 10:17:29;;;;;;;1.40;0.93;;;25.30;54.30;;;;;;4960108;28;20399;-64
2022/05/28 10:19:57;;;;;;;1.67;0.83;;;24.30;54.80;;;;;;4971752;28;20439;-64
2022/05/28 10:22:25;;;;;;;1.40;1.10;;;23.40;55.80;;;;;;4970589;28;20411;-65
2022/05/28 10:24:59;;;;;;;2.13;1.03;;;22.30;56.70;;;;;;4968268;28;20792;-67
2022/05/28 10:27:34;;;;;;;2.93;0.80;;;21.20;58.00;;;;;;4974117;28;20470;-64
2022/05/28 10:30:05;;;;;;;2.00;0.93;;;20.40;59.80;;;;;;4962933;28;20933;-64
2022/05/28 10:32:40;;;;;;;1.80;0.60;;;19.70;62.30;;;;;;4954994;28;20787;-64
2022/05/28 10:35:16;;;;;;;2.00;0.90;;;19.50;65.00;;;;;;4973572;28;20523;-66
2022/05/28 10:37:42;;;;;;;1.33;0.80;;;19.60;66.70;;;;;;4972817;28;20435;-65
2022/05/28 10:40:12;;;;;;;0.77;0.77;;;19.70;66.80;;;;;;4974186;28;20432;-65
2022/05/28 10:42:38;;;;;;;2.50;2.00;;;19.80;64.80;;;;;;4955090;28;20452;-65
2022/05/28 10:45:07;;;;;;;1.03;0.97;;;19.70;63.90;;;;;;4963224;28;20463;-67
2022/05/28 10:48:05;;;;;;;2.47;0.73;;;19.80;65.00;;;;;;4955340;28;20463;-65
2022/05/28 10:50:50;;;;;;;0.90;0.70;;;20.30;65.50;;;;;;4972445;28;20405;-66
2022/05/28 10:53:18;;;;;;;0.80;0.80;;;20.80;66.40;;;;;;4963142;28;20832;-65
2022/05/28 10:56:01;;;;;;;0.90;0.87;;;21.10;61.10;;;;;;4974277;28;20408;-66
2022/05/28 10:58:53;;;;;;;1.30;1.20;;;21.40;61.10;;;;;;4974367;28;20404;-66
2022/05/28 11:01:44;;;;;;;0.80;0.80;;;21.90;64.20;;;;;;4954930;28;20442;-65
2022/05/28 11:04:22;;;;;;;2.40;0.90;;;22.30;61.20;;;;;;4955562;28;20495;-65
2022/05/28 11:07:12;;;;;;;1.50;1.13;;;22.30;60.90;;;;;;4957270;28;20548;-66
2022/05/28 11:09:46;;;;;;;0.80;0.80;;;22.30;61.50;;;;;;4965660;28;20394;-65
2022/05/28 11:12:38;;;;;;;1.10;0.87;;;22.40;59.90;;;;;;4959152;28;20427;-64
2022/05/28 11:15:32;;;;;;;1.00;0.90;;;22.40;61.10;;;;;;4970815;28;20454;-65
2022/05/28 11:18:17;;;;;;;0.90;0.90;;;22.40;61.60;;;;;;4957993;28;20427;-63
2022/05/28 11:21:03;;;;;;;0.77;0.77;;;22.20;61.40;;;;;;4966490;28;20527;-65
2022/05/28 11:23:59;;;;;;;0.67;0.67;;;22.10;59.10;;;;;;4954589;28;20439;-64
2022/05/28 11:26:31;;;;;;;1.73;1.20;;;21.80;59.00;;;;;;4954838;28;20424;-63
2022/05/28 11:29:11;;;;;;;2.43;1.60;;;21.40;58.20;;;;;;4954797;28;20461;-65
2022/05/28 11:31:41;;;;;;;2.00;1.80;;;21.10;58.60;;;;;;4961965;28;20510;-66
2022/05/28 11:34:50;;;;;;;0.77;0.70;;;20.90;59.70;;;;;;4960981;28;20521;-66
2022/05/28 11:37:26;;;;;;;0.70;0.70;;;20.80;59.70;;;;;;4935128;28;20481;-66
2022/05/28 11:39:55;;;;;;;0.60;0.60;;;20.80;59.80;;;;;;4958413;28;20437;-63
2022/05/28 11:42:53;;;;;;;3.03;1.50;;;20.80;58.80;;;;;;4958203;28;20419;-64
2022/05/28 11:45:42;;;;;;;0.80;0.80;;;20.80;59.90;;;;;;4977402;28;20464;-65
2022/05/28 11:48:16;;;;;;;0.90;0.90;;;20.90;60.60;;;;;;4977652;28;20547;-63
2022/05/28 11:53:56;;;;;;;1.43;1.10;;;20.80;58.60;;;;;;4996269;28;20425;-65
2022/05/28 11:56:28;;;;;;;0.80;0.80;;;20.70;60.90;;;;;;4997282;28;20406;-64
2022/05/28 11:59:17;;;;;;;0.80;0.80;;;20.80;59.60;;;;;;4996903;28;20968;-65
2022/05/28 12:01:52;;;;;;;1.00;0.70;;;20.90;58.90;;;;;;4979583;28;20435;-65
2022/05/28 12:04:19;;;;;;;0.70;0.70;;;20.80;58.20;;;;;;4976807;28;21001;-64
2022/05/28 12:07:08;;;;;;;0.90;0.90;;;20.70;59.30;;;;;;4996815;28;20454;-65
2022/05/28 12:09:39;;;;;;;1.00;0.90;;;20.50;58.40;;;;;;4940955;28;20514;-64
2022/05/28 12:12:23;;;;;;;1.80;1.13;;;20.40;59.20;;;;;;4957774;28;20416;-65
2022/05/28 12:15:16;;;;;;;1.47;1.37;;;20.20;58.50;;;;;;4965188;28;21079;-64
2022/05/28 12:17:54;;;;;;;3.80;1.30;;;19.80;59.60;;;;;;4976732;28;20390;-63
2022/05/28 12:20:29;;;;;;;1.17;1.07;;;19.60;61.60;;;;;;4979694;28;20837;-65
2022/05/28 12:23:02;;;;;;;1.07;1.07;;;19.20;62.50;;;;;;4993193;28;20447;-64
2022/05/28 12:25:36;;;;;;;0.93;0.93;;;19.30;65.20;;;;;;4996596;28;20542;-65
2022/05/28 12:28:13;;;;;;;1.40;1.07;;;19.50;65.70;;;;;;4996519;28;20459;-65
2022/05/28 12:30:44;;;;;;;0.90;0.90;;;19.80;63.90;;;;;;4986321;28;20398;-64
2022/05/28 12:33:21;;;;;;;1.57;0.67;;;20.00;65.40;;;;;;4974087;28;20431;-64
2022/05/28 12:36:08;;;;;;;0.80;0.80;;;20.10;63.50;;;;;;4989621;28;20449;-64
2022/05/28 12:38:49;;;;;;;0.60;0.60;;;20.20;61.80;;;;;;4967744;28;20441;-65
2022/05/28 12:41:21;;;;;;;2.93;0.87;;;20.20;61.60;;;;;;4975149;28;20958;-65
2022/05/28 12:44:01;;;;;;;1.13;0.83;;;20.20;63.00;;;;;;4974690;28;20454;-64
2022/05/28 12:46:47;;;;;;;1.37;1.00;;;20.20;64.00;;;;;;4968527;28;20415;-63
2022/05/28 12:49:50;;;;;;;1.33;0.97;;;20.30;64.00;;;;;;4976611;28;20425;-63
2022/05/28 12:52:22;;;;;;;1.33;1.23;;;20.30;62.10;;;;;;4969890;28;20518;-64
2022/05/28 12:55:04;;;;;;;0.90;0.90;;;20.30;62.70;;;;;;4976402;28;20434;-64
2022/05/28 12:57:34;;;;;;;2.10;0.90;;;20.20;61.90;;;;;;4976543;28;20795;-64
2022/05/28 13:00:25;;;;;;;0.93;0.73;;;20.10;60.40;;;;;;4976424;28;20823;-65
2022/05/28 13:02:52;;;;;;;2.20;1.40;;;19.90;59.90;;;;;;4974457;28;20471;-63
2022/05/28 13:05:33;;;;;;;0.80;0.80;;;19.80;60.50;;;;;;4992262;28;20443;-65
2022/05/28 13:08:20;;;;;;;2.80;1.33;;;19.70;62.60;;;;;;4977936;28;20553;-64
2022/05/28 13:10:50;;;;;;;1.53;1.30;;;19.60;61.00;;;;;;4976131;28;20835;-64
2022/05/28 13:13:28;;;;;;;1.57;1.47;;;19.40;61.90;;;;;;4975719;28;20436;-64
2022/05/28 13:16:12;;;;;;;3.80;1.00;;;19.30;63.20;;;;;;4975910;28;20424;-63
2022/05/28 13:19:02;;;;;;;2.63;0.80;;;19.10;63.10;;;;;;4976112;28;20385;-64
2022/05/28 13:21:57;;;;;;;1.20;1.10;;;19.10;61.70;;;;;;4976005;28;20529;-63
2022/05/28 13:24:44;;;;;;;5.90;1.47;;;19.00;61.60;;;;;;4975732;28;20509;-64
2022/05/28 13:27:35;;;;;;;2.70;2.50;;;18.90;63.60;;;;;;4975934;28;20500;-67
2022/05/28 13:30:27;;;;;;;1.87;1.73;;;19.00;64.40;;;;;;4974762;28;20423;-64
2022/05/28 13:33:04;;;;;;;0.90;0.90;;;19.10;63.90;;;;;;4951829;28;20483;-65
2022/05/28 13:36:05;;;;;;;0.77;0.77;;;18.90;61.60;;;;;;4966950;28;20423;-66
2022/05/28 13:38:41;;;;;;;0.70;0.70;;;19.00;62.00;;;;;;4944468;28;20427;-66
2022/05/28 13:41:15;;;;;;;1.63;0.90;;;19.20;65.00;;;;;;4995202;28;20405;-65
2022/05/28 13:43:44;;;;;;;0.80;0.80;;;19.20;60.80;;;;;;4994775;28;20782;-67
2022/05/28 13:46:11;;;;;;;1.50;1.30;;;19.20;63.10;;;;;;4988569;28;20420;-65
2022/05/28 13:48:45;;;;;;;1.00;0.70;;;19.30;65.40;;;;;;4975444;28;20559;-65
2022/05/28 13:51:11;;;;;;;2.00;1.10;;;19.40;65.10;;;;;;4975630;28;20426;-65
2022/05/28 13:53:40;;;;;;;0.87;0.83;;;19.60;66.30;;;;;;4978062;28;20526;-66
2022/05/28 13:56:08;;;;;;;1.30;1.10;;;19.70;66.30;;;;;;4958714;28;20433;-65
2022/05/28 13:58:40;;;;;;;2.30;1.70;;;19.60;64.70;;;;;;4956095;28;20444;-66
2022/05/28 14:01:09;;;;;;;1.90;0.90;;;19.60;64.40;;;;;;4955552;28;20448;-65
2022/05/28 14:03:40;;;;;;;1.20;1.00;;;19.70;64.40;;;;;;4973639;28;20450;-66
2022/05/28 14:06:17;;;;;;;0.80;0.80;;;19.80;65.90;;;;;;4972439;28;20443;-65
2022/05/28 14:08:47;;;;;;;0.80;0.80;;;19.80;62.90;;;;;;4969587;28;20519;-67
2022/05/28 14:11:30;;;;;;;1.03;0.93;;;19.60;61.10;;;;;;4975820;28;20428;-65
2022/05/28 14:14:13;;;;;;;0.93;0.90;;;19.50;61.50;;;;;;4955150;29;20677;-66
2022/05/28 14:16:52;;;;;;;0.83;0.77;;;19.30;61.60;;;;;;4955718;28;20417;-67
2022/05/28 14:19:25;;;;;;;0.60;0.60;;;19.20;62.10;;;;;;4955716;28;20511;-64
2022/05/28 14:21:54;;;;;;;0.77;0.77;;;19.10;62.00;;;;;;4955804;28;20911;-66
2022/05/28 14:24:37;;;;;;;0.90;0.90;;;19.20;62.90;;;;;;4981015;28;20948;-65
2022/05/28 14:27:11;;;;;;;0.50;0.50;;;19.20;61.70;;;;;;4973151;28;20845;-66
2022/05/28 14:29:41;;;;;;;1.03;0.93;;;19.20;63.20;;;;;;4962007;28;20424;-65
2022/05/28 14:32:16;;;;;;;3.03;0.70;;;19.20;62.00;;;;;;4974267;28;20422;-65
2022/05/28 14:34:47;;;;;;;1.47;0.70;;;19.20;61.00;;;;;;4974421;28;20962;-64
2022/05/28 14:37:31;;;;;;;1.73;1.63;;;19.00;61.00;;;;;;4974937;28;20404;-65
2022/05/28 14:40:02;;;;;;;0.80;0.80;;;18.90;62.70;;;;;;4985822;28;20422;-65
2022/05/28 14:42:32;;;;;;;1.13;1.00;;;18.80;62.00;;;;;;4959807;28;20442;-66
2022/05/28 14:45:07;;;;;;;0.80;0.80;;;18.60;61.90;;;;;;4955005;28;20431;-66
2022/05/28 14:47:36;;;;;;;0.67;0.60;;;18.50;62.70;;;;;;4955311;28;20463;-65
2022/05/28 14:50:05;;;;;;;1.07;0.93;;;18.50;64.10;;;;;;4974735;28;20926;-65
2022/05/28 14:52:35;;;;;;;0.97;0.97;;;18.50;63.70;;;;;;4993609;28;20412;-64
2022/05/28 14:55:11;;;;;;;1.50;0.83;;;18.60;62.90;;;;;;4993910;28;20787;-65
2022/05/28 14:57:45;;;;;;;2.10;0.80;;;18.70;63.10;;;;;;4955453;28;20473;-65
2022/05/28 15:00:14;;;;;;;1.57;1.00;;;18.70;63.50;;;;;;4955180;28;20463;-65
2022/05/28 15:02:41;;;;;;;2.87;1.23;;;18.70;63.10;;;;;;4954730;28;20423;-64
2022/05/28 15:05:14;;;;;;;0.70;0.70;;;18.60;62.80;;;;;;4955778;28;20549;-66
2022/05/28 15:07:57;;;;;;;0.80;0.80;;;18.50;62.40;;;;;;4970578;28;20458;-65
2022/05/28 15:10:29;;;;;;;2.50;0.80;;;18.40;63.10;;;;;;4974350;28;20417;-65
2022/05/28 15:12:54;;;;;;;0.80;0.80;;;18.40;64.00;;;;;;4973754;28;20419;-65
2022/05/28 15:15:20;;;;;;;1.23;1.13;;;18.40;62.60;;;;;;4978568;28;20747;-65
2022/05/28 15:17:46;;;;;;;0.80;0.80;;;18.50;63.50;;;;;;4978253;28;20532;-64
2022/05/28 15:20:12;;;;;;;1.47;0.87;;;18.50;62.10;;;;;;4993083;28;20171;-64
2022/05/28 15:22:38;;;;;;;1.03;0.70;;;18.40;62.10;;;;;;4997389;28;20190;-64
2022/05/28 15:25:05;;;;;;;0.80;0.77;;;18.50;65.00;;;;;;4997484;28;20440;-64
2022/05/28 15:27:30;;;;;;;0.73;0.73;;;18.50;62.40;;;;;;4979458;28;20455;-65
2022/05/28 15:29:56;;;;;;;0.90;0.80;;;18.50;60.00;;;;;;4977874;28;20786;-65
2022/05/28 15:32:26;;;;;;;1.90;0.77;;;18.50;61.00;;;;;;4977754;28;20221;-65
2022/05/28 15:35:00;;;;;;;1.27;0.73;;;18.40;61.20;;;;;;4992269;28;20629;-64
2022/05/28 15:40:11;;;;;;;0.93;0.93;;;18.40;62.70;;;;;;4997853;28;20413;-65
2022/05/28 15:42:42;;;;;;;1.50;1.40;;;18.40;63.80;;;;;;4975527;28;20522;-64
2022/05/28 15:45:21;;;;;;;1.40;1.30;;;18.50;65.80;;;;;;4964644;28;20510;-65
2022/05/28 15:47:47;;;;;;;0.90;0.90;;;18.60;63.20;;;;;;4977482;28;20455;-64
2022/05/28 15:50:15;;;;;;;0.80;0.80;;;18.60;62.10;;;;;;4990971;28;20798;-66
2022/05/28 15:52:41;;;;;;;1.13;0.83;;;18.60;62.00;;;;;;4976858;28;20192;-64
2022/05/28 15:55:08;;;;;;;3.30;1.57;;;18.50;62.60;;;;;;4977486;28;20435;-65
2022/05/28 15:57:40;;;;;;;0.93;0.93;;;18.30;65.70;;;;;;4977461;28;20193;-66
2022/05/28 16:00:07;;;;;;;0.70;0.70;;;18.30;65.40;;;;;;4970120;28;20791;-66
2022/05/28 16:02:34;;;;;;;1.80;1.00;;;18.20;63.10;;;;;;4957677;28;20443;-64
2022/05/28 16:04:59;;;;;;;1.00;0.90;;;18.20;63.50;;;;;;4988136;28;20484;-66
2022/05/28 16:07:25;;;;;;;1.33;1.00;;;18.10;63.30;;;;;;4957678;28;20486;-65
2022/05/28 16:09:52;;;;;;;0.97;0.87;;;18.10;63.70;;;;;;4956370;29;20189;-65
2022/05/28 16:12:18;;;;;;;0.90;0.90;;;18.00;65.80;;;;;;4956144;28;21153;-64
2022/05/28 16:14:44;;;;;;;0.90;0.90;;;17.90;63.50;;;;;;4957937;28;20751;-65
2022/05/28 16:17:10;;;;;;;0.80;0.80;;;17.90;63.80;;;;;;4958024;28;20513;-65
2022/05/28 16:19:36;;;;;;;2.93;1.37;;;17.70;64.10;;;;;;4988402;28;20429;-64
2022/05/28 16:22:02;;;;;;;1.00;1.00;;;17.70;65.00;;;;;;4957456;28;20478;-64
2022/05/28 16:24:28;;;;;;;3.53;1.00;;;17.70;65.80;;;;;;4957467;28;20939;-65
2022/05/28 16:26:53;;;;;;;0.90;0.90;;;17.60;66.50;;;;;;4957811;28;20544;-65
2022/05/28 16:29:22;;;;;;;1.40;1.30;;;17.60;67.90;;;;;;4958677;28;20738;-64
2022/05/28 16:31:48;;;;;;;1.07;0.93;;;17.70;65.80;;;;;;4976846;28;20180;-64
2022/05/28 16:34:15;;;;;;;0.93;0.90;;;17.70;65.80;;;;;;4976784;28;20525;-63
2022/05/28 16:36:42;;;;;;;0.73;0.73;;;17.70;66.20;;;;;;4977027;28;20184;-65
2022/05/28 16:39:09;;;;;;;0.60;0.60;;;17.70;65.40;;;;;;4976882;28;20417;-64
2022/05/28 16:41:36;;;;;;;1.10;1.10;;;17.70;65.30;;;;;;4975963;28;20424;-65
2022/05/28 16:44:06;;;;;;;0.90;0.90;;;17.70;67.10;;;;;;4976204;28;20439;-63
2022/05/28 16:46:32;;;;;;;1.23;0.80;;;17.70;63.90;;;;;;4976546;28;20416;-64
2022/05/28 16:48:57;;;;;;;0.90;0.90;;;17.70;65.80;;;;;;4993632;28;20529;-64
2022/05/28 16:51:24;;;;;;;1.27;1.17;;;17.50;65.10;;;;;;4995774;28;20769;-63
2022/05/28 16:53:51;;;;;;;0.97;0.97;;;17.40;65.70;;;;;;4982111;28;20194;-65
2022/05/28 16:56:22;;;;;;;1.23;1.03;;;17.40;66.80;;;;;;4957113;28;20450;-64
2022/05/28 16:58:48;;;;;;;1.60;1.20;;;17.40;66.20;;;;;;4957304;28;20514;-65
2022/05/28 17:01:14;;;;;;;1.10;0.93;;;17.30;66.70;;;;;;4964492;28;20430;-64
2022/05/28 17:03:40;;;;;;;1.63;1.00;;;17.30;66.00;;;;;;4992729;28;20447;-62
2022/05/28 17:06:06;;;;;;;1.27;0.70;;;17.20;67.00;;;;;;4995533;28;20442;-63
2022/05/28 17:08:32;;;;;;;1.10;1.10;;;17.20;67.00;;;;;;4984472;28;20608;-65
2022/05/28 17:10:58;;;;;;;1.43;1.30;;;17.20;66.40;;;;;;4990650;28;20459;-64
2022/05/28 17:13:25;;;;;;;2.00;1.57;;;17.10;66.60;;;;;;4995343;28;20541;-64
2022/05/28 17:15:54;;;;;;;1.43;1.10;;;17.10;66.40;;;;;;4995546;28;20184;-65
2022/05/28 17:18:20;;;;;;;0.83;0.83;;;17.00;66.90;;;;;;4995617;28;20443;-66
2022/05/28 17:20:45;;;;;;;1.10;1.00;;;17.00;67.10;;;;;;4995476;28;20418;-65
2022/05/28 17:23:11;;;;;;;2.30;1.00;;;16.90;67.30;;;;;;4984770;28;20451;-66